Time;durP1;ratioP1;P1;durP2;ratioP2;P2;SDS_P1;SDS_P2;PMS_P1;PMS_P2;Temp;Humidity;BMP_temperature;BMP_pressure;BME280_temperature;BME280_humidity;BME280_pressure;Samples;Min_cycle;Max_cycle;Signal;HPM_P1;HPM_P2
2021/09/27 00:00:38;;;;;;;17.33;12.50;;;;;;;;;;5032320;28;20390;-46
2021/09/27 00:03:04;;;;;;;15.77;11.97;;;;;;;;;;5031851;28;20418;-46
2021/09/27 00:05:31;;;;;;;13.90;11.90;;;;;;;;;;5032306;28;20403;-47
2021/09/27 00:07:57;;;;;;;15.63;11.40;;;;;;;;;;5032204;28;20772;-47
2021/09/27 00:10:34;;;;;;;16.27;11.67;;;;;;;;;;5032233;28;20407;-47
2021/09/27 00:13:00;;;;;;;17.83;12.20;;;;;;;;;;5031798;28;20502;-45
2021/09/27 00:15:29;;;;;;;16.30;13.80;;;;;;;;;;5031925;28;20936;-46
2021/09/27 00:17:55;;;;;;;16.60;12.60;;;;;;;;;;5032563;28;20507;-46
2021/09/27 00:20:22;;;;;;;14.83;11.30;;;;;;;;;;5032108;28;20883;-46
2021/09/27 00:22:48;;;;;;;13.43;11.07;;;;;;;;;;5031703;28;20399;-47
2021/09/27 00:25:15;;;;;;;13.47;11.30;;;;;;;;;;5031985;28;20380;-46
2021/09/27 00:27:41;;;;;;;12.67;10.80;;;;;;;;;;5032071;28;20376;-46
2021/09/27 00:30:07;;;;;;;14.53;11.40;;;;;;;;;;5031879;28;20844;-46
2021/09/27 00:32:33;;;;;;;12.27;10.97;;;;;;;;;;5031554;28;20439;-46
2021/09/27 00:34:59;;;;;;;11.07;9.97;;;;;;;;;;5031884;28;21043;-47
2021/09/27 00:37:25;;;;;;;11.20;10.13;;;;;;;;;;5031785;28;20445;-46
2021/09/27 00:39:51;;;;;;;11.23;9.73;;;;;;;;;;5031750;28;20434;-47
2021/09/27 00:42:17;;;;;;;10.77;9.67;;;;;;;;;;5031510;28;20466;-46
2021/09/27 00:44:43;;;;;;;11.83;10.67;;;;;;;;;;5031735;28;20846;-47
2021/09/27 00:47:09;;;;;;;14.20;11.70;;;;;;;;;;5031802;28;20392;-47
2021/09/27 00:49:35;;;;;;;15.10;12.23;;;;;;;;;;5031907;28;20438;-47
2021/09/27 00:52:01;;;;;;;13.07;11.37;;;;;;;;;;5031473;28;20411;-49
2021/09/27 00:54:30;;;;;;;14.30;12.60;;;;;;;;;;5031595;28;20529;-47
2021/09/27 00:57:08;;;;;;;16.13;10.70;;;;;;;;;;5031654;28;20392;-46
2021/09/27 00:59:35;;;;;;;13.37;10.33;;;;;;;;;;5031630;28;20400;-47
2021/09/27 01:02:01;;;;;;;15.70;11.80;;;;;;;;;;5031223;28;20742;-46
2021/09/27 01:04:27;;;;;;;11.67;10.13;;;;;;;;;;5031168;28;20413;-46
2021/09/27 01:06:56;;;;;;;13.33;11.37;;;;;;;;;;5031201;28;20779;-46
2021/09/27 01:09:32;;;;;;;13.77;11.10;;;;;;;;;;5031571;28;20475;-47
2021/09/27 01:12:16;;;;;;;13.93;11.37;;;;;;;;;;5031027;28;20484;-50
2021/09/27 01:14:54;;;;;;;12.00;9.90;;;;;;;;;;5031366;28;20471;-47
2021/09/27 01:17:43;;;;;;;16.40;10.83;;;;;;;;;;5031473;28;20406;-46
2021/09/27 01:20:22;;;;;;;11.70;10.50;;;;;;;;;;5031469;28;20406;-45
2021/09/27 01:23:06;;;;;;;14.03;10.60;;;;;;;;;;5031119;28;20510;-46
2021/09/27 01:25:35;;;;;;;15.37;12.63;;;;;;;;;;5031451;28;20498;-49
2021/09/27 01:28:07;;;;;;;13.90;11.27;;;;;;;;;;5031379;28;20456;-47
2021/09/27 01:30:42;;;;;;;13.10;11.30;;;;;;;;;;5031271;28;20482;-47
2021/09/27 01:33:18;;;;;;;12.70;11.40;;;;;;;;;;5031051;28;20932;-46
2021/09/27 01:36:02;;;;;;;13.57;12.17;;;;;;;;;;5031226;28;20821;-46
2021/09/27 01:38:33;;;;;;;14.20;11.33;;;;;;;;;;5031341;28;20890;-46
2021/09/27 01:40:59;;;;;;;13.50;12.10;;;;;;;;;;5031212;28;20395;-46
2021/09/27 01:43:28;;;;;;;14.43;10.83;;;;;;;;;;5031016;28;20447;-46
2021/09/27 01:46:06;;;;;;;12.07;10.33;;;;;;;;;;5031185;28;20453;-46
2021/09/27 01:48:32;;;;;;;15.23;10.60;;;;;;;;;;5031242;28;20400;-49
2021/09/27 01:51:11;;;;;;;15.50;10.90;;;;;;;;;;5033248;28;20667;-46
2021/09/27 01:53:40;;;;;;;18.10;10.63;;;;;;;;;;5034267;28;20421;-46
2021/09/27 01:56:09;;;;;;;11.37;10.17;;;;;;;;;;5034587;28;20463;-46
2021/09/27 01:58:54;;;;;;;11.30;9.93;;;;;;;;;;5034619;28;20464;-48
2021/09/27 02:01:31;;;;;;;13.03;10.70;;;;;;;;;;5034479;28;20400;-47
2021/09/27 02:04:04;;;;;;;13.20;11.60;;;;;;;;;;5034241;28;20476;-48
2021/09/27 02:06:32;;;;;;;13.47;11.00;;;;;;;;;;5034517;28;20394;-46
2021/09/27 02:09:02;;;;;;;22.10;10.63;;;;;;;;;;5034404;28;20409;-47
2021/09/27 02:11:30;;;;;;;12.70;10.90;;;;;;;;;;5034314;28;20402;-46
2021/09/27 02:14:06;;;;;;;11.77;10.30;;;;;;;;;;5034007;28;20465;-46
2021/09/27 02:16:36;;;;;;;13.40;11.10;;;;;;;;;;5034086;28;20467;-47
2021/09/27 02:19:05;;;;;;;15.70;10.63;;;;;;;;;;5034255;28;20397;-47
2021/09/27 02:21:33;;;;;;;14.80;11.13;;;;;;;;;;5034192;28;20426;-46
2021/09/27 02:24:16;;;;;;;17.10;12.33;;;;;;;;;;5033904;28;20465;-47
2021/09/27 02:26:42;;;;;;;16.60;12.33;;;;;;;;;;5034146;28;20826;-46
2021/09/27 02:29:08;;;;;;;13.90;12.40;;;;;;;;;;5033894;28;20395;-49
2021/09/27 02:32:00;;;;;;;17.10;13.70;;;;;;;;;;5034077;28;20417;-47
2021/09/27 02:34:39;;;;;;;16.80;13.03;;;;;;;;;;5033550;28;20457;-46
2021/09/27 02:37:24;;;;;;;15.77;12.03;;;;;;;;;;5033915;28;20452;-46
2021/09/27 02:39:50;;;;;;;14.43;12.30;;;;;;;;;;5033831;28;20457;-46
2021/09/27 02:42:25;;;;;;;15.87;13.07;;;;;;;;;;5033398;28;20423;-46
2021/09/27 02:44:51;;;;;;;12.93;11.57;;;;;;;;;;5033782;28;20449;-47
2021/09/27 02:47:21;;;;;;;23.23;13.50;;;;;;;;;;5033650;28;20390;-46
2021/09/27 02:49:47;;;;;;;12.20;10.63;;;;;;;;;;5033613;28;20452;-46
2021/09/27 02:52:16;;;;;;;16.07;11.43;;;;;;;;;;5033324;28;20406;-46
2021/09/27 02:54:54;;;;;;;14.53;10.90;;;;;;;;;;5033416;28;20466;-46
2021/09/27 02:57:39;;;;;;;14.00;11.53;;;;;;;;;;5033500;28;20398;-46
2021/09/27 03:00:08;;;;;;;14.97;11.33;;;;;;;;;;5033462;28;20393;-49
2021/09/27 03:02:43;;;;;;;12.10;10.80;;;;;;;;;;5032789;28;20441;-46
2021/09/27 03:05:15;;;;;;;13.13;10.63;;;;;;;;;;5033493;28;20460;-47
2021/09/27 03:08:00;;;;;;;13.43;10.50;;;;;;;;;;5033275;28;20452;-47
2021/09/27 03:10:56;;;;;;;17.10;11.90;;;;;;;;;;5033285;28;20493;-46
2021/09/27 03:13:31;;;;;;;14.43;10.40;;;;;;;;;;5032816;28;20531;-47
2021/09/27 03:16:06;;;;;;;12.43;10.77;;;;;;;;;;5033032;28;20458;-46
2021/09/27 03:18:44;;;;;;;14.67;11.57;;;;;;;;;;5033089;28;20382;-49
2021/09/27 03:21:25;;;;;;;12.53;11.17;;;;;;;;;;5032820;28;20396;-49
2021/09/27 03:23:58;;;;;;;12.20;10.73;;;;;;;;;;5032838;28;20786;-47
2021/09/27 03:26:48;;;;;;;13.57;11.97;;;;;;;;;;5033023;28;20492;-46
2021/09/27 03:29:23;;;;;;;14.33;11.13;;;;;;;;;;5032938;28;20421;-49
2021/09/27 03:32:04;;;;;;;13.00;11.47;;;;;;;;;;5032625;28;20418;-46
2021/09/27 03:34:35;;;;;;;17.20;12.13;;;;;;;;;;5032881;28;20459;-46
2021/09/27 03:37:16;;;;;;;13.40;11.43;;;;;;;;;;5032721;28;20377;-46
2021/09/27 03:39:51;;;;;;;20.60;11.80;;;;;;;;;;5032669;28;20383;-46
2021/09/27 03:42:25;;;;;;;17.87;10.63;;;;;;;;;;5032265;28;20497;-47
2021/09/27 03:45:05;;;;;;;14.33;11.53;;;;;;;;;;5032667;28;20409;-46
2021/09/27 03:47:37;;;;;;;15.60;11.17;;;;;;;;;;5032618;28;20494;-46
2021/09/27 03:50:08;;;;;;;13.60;11.23;;;;;;;;;;5032576;28;20369;-46
2021/09/27 03:52:37;;;;;;;14.63;11.23;;;;;;;;;;5032069;28;20931;-45
2021/09/27 03:55:10;;;;;;;14.60;11.60;;;;;;;;;;5032367;28;20468;-47
2021/09/27 03:57:39;;;;;;;13.50;11.20;;;;;;;;;;5032397;28;20404;-46
2021/09/27 04:00:07;;;;;;;15.33;10.67;;;;;;;;;;5032320;28;20453;-47
2021/09/27 04:02:36;;;;;;;22.23;10.43;;;;;;;;;;5031941;28;20468;-46
2021/09/27 04:05:05;;;;;;;11.80;9.80;;;;;;;;;;5032273;28;20764;-46
2021/09/27 04:07:54;;;;;;;14.23;10.60;;;;;;;;;;5032301;28;20441;-48
2021/09/27 04:10:29;;;;;;;14.87;10.87;;;;;;;;;;5031663;28;20465;-46
2021/09/27 04:12:57;;;;;;;13.47;11.00;;;;;;;;;;5031225;28;20409;-46
2021/09/27 04:15:23;;;;;;;12.27;10.97;;;;;;;;;;5031840;28;20463;-48
2021/09/27 04:18:00;;;;;;;14.17;11.37;;;;;;;;;;5032133;28;20379;-45
2021/09/27 04:20:41;;;;;;;15.97;10.93;;;;;;;;;;5032044;28;20876;-48
2021/09/27 04:23:07;;;;;;;13.70;10.70;;;;;;;;;;5031671;28;20391;-47
2021/09/27 04:25:42;;;;;;;14.50;10.30;;;;;;;;;;5031974;28;20454;-46
2021/09/27 04:28:26;;;;;;;15.20;11.03;;;;;;;;;;5031977;28;20408;-46
2021/09/27 04:31:02;;;;;;;12.83;10.00;;;;;;;;;;5031808;28;20395;-46
2021/09/27 04:33:46;;;;;;;14.07;9.90;;;;;;;;;;5031759;28;20421;-47
2021/09/27 04:36:29;;;;;;;11.73;8.97;;;;;;;;;;5032257;28;20543;-46
2021/09/27 04:38:57;;;;;;;14.20;9.63;;;;;;;;;;5031919;28;20500;-47
2021/09/27 04:41:42;;;;;;;11.73;9.60;;;;;;;;;;5031761;28;20384;-47
2021/09/27 04:44:19;;;;;;;12.80;9.80;;;;;;;;;;5032325;28;20407;-49
2021/09/27 04:46:49;;;;;;;10.53;9.10;;;;;;;;;;5031773;28;20364;-50
2021/09/27 04:49:38;;;;;;;14.50;9.10;;;;;;;;;;5031757;28;20410;-49
2021/09/27 04:52:19;;;;;;;15.70;10.57;;;;;;;;;;5031402;28;20401;-50
2021/09/27 04:54:51;;;;;;;11.23;9.73;;;;;;;;;;5031597;28;20456;-51
2021/09/27 04:57:25;;;;;;;11.30;9.90;;;;;;;;;;5031626;28;20370;-50
2021/09/27 05:00:03;;;;;;;15.87;9.43;;;;;;;;;;5031699;28;20416;-50
2021/09/27 05:02:47;;;;;;;10.63;9.63;;;;;;;;;;5031240;28;20414;-49
2021/09/27 05:05:13;;;;;;;11.00;9.23;;;;;;;;;;5031547;28;20480;-50
2021/09/27 05:07:50;;;;;;;13.33;9.47;;;;;;;;;;5031566;28;20493;-49
2021/09/27 05:10:33;;;;;;;18.77;9.00;;;;;;;;;;5031619;28;20417;-51
2021/09/27 05:13:02;;;;;;;10.10;9.13;;;;;;;;;;5031224;28;20511;-48
2021/09/27 05:15:34;;;;;;;11.03;8.90;;;;;;;;;;5031362;28;20552;-50
2021/09/27 05:18:15;;;;;;;18.23;10.47;;;;;;;;;;5031799;28;20419;-49
2021/09/27 05:21:00;;;;;;;12.20;9.63;;;;;;;;;;5031539;28;20745;-50
2021/09/27 05:23:44;;;;;;;10.47;9.37;;;;;;;;;;5031097;28;20452;-49
2021/09/27 05:26:16;;;;;;;12.67;9.13;;;;;;;;;;5035195;28;20399;-50
2021/09/27 05:28:42;;;;;;;11.40;8.87;;;;;;;;;;5035277;28;20408;-50
2021/09/27 05:31:27;;;;;;;11.00;9.20;;;;;;;;;;5035059;28;20953;-51
2021/09/27 05:33:53;;;;;;;11.90;10.37;;;;;;;;;;5034972;28;20420;-51
2021/09/27 05:36:26;;;;;;;13.20;11.00;;;;;;;;;;5035044;28;20460;-51
2021/09/27 05:38:52;;;;;;;10.47;9.40;;;;;;;;;;5035057;28;20400;-51
2021/09/27 05:41:21;;;;;;;11.10;8.97;;;;;;;;;;5034933;28;20439;-52
2021/09/27 05:43:56;;;;;;;11.80;8.87;;;;;;;;;;5034617;28;20409;-49
2021/09/27 05:46:22;;;;;;;11.93;9.50;;;;;;;;;;5034963;28;20379;-50
2021/09/27 05:48:53;;;;;;;12.37;9.70;;;;;;;;;;5034854;28;20491;-51
2021/09/27 05:51:19;;;;;;;11.90;9.50;;;;;;;;;;5034596;28;20461;-51
2021/09/27 05:54:06;;;;;;;11.77;10.07;;;;;;;;;;5034431;28;20409;-51
2021/09/27 05:56:37;;;;;;;15.10;10.10;;;;;;;;;;5034921;28;20478;-50
2021/09/27 05:59:25;;;;;;;12.67;9.90;;;;;;;;;;5034647;28;20946;-50
2021/09/27 06:01:54;;;;;;;11.53;9.00;;;;;;;;;;5034392;28;20701;-50
2021/09/27 06:04:39;;;;;;;11.60;10.43;;;;;;;;;;5034510;28;20834;-51
2021/09/27 06:07:13;;;;;;;10.43;9.40;;;;;;;;;;5033669;28;20397;-49
2021/09/27 06:09:48;;;;;;;11.90;8.80;;;;;;;;;;5033837;28;20409;-49
2021/09/27 06:12:25;;;;;;;10.57;8.73;;;;;;;;;;5033250;28;20426;-50
2021/09/27 06:14:55;;;;;;;10.20;8.93;;;;;;;;;;5033613;28;20437;-51
2021/09/27 06:17:30;;;;;;;13.40;8.90;;;;;;;;;;5033685;28;20404;-49
2021/09/27 06:19:56;;;;;;;9.40;8.37;;;;;;;;;;5033522;28;20744;-50
2021/09/27 06:22:28;;;;;;;10.80;8.20;;;;;;;;;;5033139;28;20403;-51
2021/09/27 06:25:14;;;;;;;12.90;8.83;;;;;;;;;;5033425;28;20903;-50
2021/09/27 06:27:45;;;;;;;9.63;8.33;;;;;;;;;;5033573;28;20384;-49
2021/09/27 06:30:11;;;;;;;8.27;7.03;;;;;;;;;;5033271;28;20406;-51
2021/09/27 06:32:55;;;;;;;14.00;9.10;;;;;;;;;;5033024;28;20401;-50
2021/09/27 06:35:24;;;;;;;10.00;8.33;;;;;;;;;;5032881;28;20562;-51
2021/09/27 06:37:50;;;;;;;9.57;8.23;;;;;;;;;;5033137;28;20411;-51
2021/09/27 06:40:16;;;;;;;8.23;7.37;;;;;;;;;;5032921;28;20393;-52
2021/09/27 06:42:43;;;;;;;8.77;7.87;;;;;;;;;;5032881;28;20517;-50
2021/09/27 06:45:10;;;;;;;8.23;7.37;;;;;;;;;;5033005;28;20440;-49
2021/09/27 06:47:36;;;;;;;7.60;6.80;;;;;;;;;;5032992;28;20409;-51
2021/09/27 06:50:03;;;;;;;7.33;6.63;;;;;;;;;;5033273;28;20784;-51
2021/09/27 06:52:29;;;;;;;7.70;6.90;;;;;;;;;;5032775;28;20425;-51
2021/09/27 06:54:55;;;;;;;8.00;7.10;;;;;;;;;;5032625;28;20476;-50
2021/09/27 06:57:21;;;;;;;7.70;6.47;;;;;;;;;;5031946;28;20475;-50
2021/09/27 06:59:47;;;;;;;10.90;7.17;;;;;;;;;;5032538;28;20381;-50
2021/09/27 07:02:13;;;;;;;7.93;7.20;;;;;;;;;;5031118;28;20844;-50
2021/09/27 07:04:39;;;;;;;8.30;7.10;;;;;;;;;;5031453;28;20616;-49
2021/09/27 07:07:05;;;;;;;10.33;6.93;;;;;;;;;;5032378;28;20418;-48
2021/09/27 07:09:31;;;;;;;7.33;6.63;;;;;;;;;;5032900;28;20411;-51
2021/09/27 07:11:57;;;;;;;7.40;6.67;;;;;;;;;;5032965;28;20415;-51
2021/09/27 07:14:23;;;;;;;7.80;6.97;;;;;;;;;;5032983;28;20461;-51
2021/09/27 07:16:50;;;;;;;6.90;6.30;;;;;;;;;;5033275;28;20453;-49
2021/09/27 07:19:15;;;;;;;9.63;6.43;;;;;;;;;;5033163;28;20408;-50
2021/09/27 07:21:42;;;;;;;6.83;5.97;;;;;;;;;;5032960;28;20413;-50
2021/09/27 07:24:09;;;;;;;8.30;7.30;;;;;;;;;;5032855;28;20455;-50
2021/09/27 07:26:35;;;;;;;7.53;6.83;;;;;;;;;;5032999;28;20406;-51
2021/09/27 07:29:02;;;;;;;7.90;7.10;;;;;;;;;;5032806;28;20885;-51
2021/09/27 07:31:30;;;;;;;6.87;6.27;;;;;;;;;;5032796;28;20433;-51
2021/09/27 07:33:57;;;;;;;8.00;6.10;;;;;;;;;;5032551;28;20426;-49
2021/09/27 07:36:24;;;;;;;9.37;6.67;;;;;;;;;;5032698;28;20461;-51
2021/09/27 07:38:50;;;;;;;6.50;5.90;;;;;;;;;;5032759;28;20402;-51
2021/09/27 07:41:16;;;;;;;7.67;6.50;;;;;;;;;;5032648;28;20789;-50
2021/09/27 07:43:42;;;;;;;7.93;7.20;;;;;;;;;;5032285;28;20426;-51
2021/09/27 07:46:08;;;;;;;7.20;6.20;;;;;;;;;;5032663;28;20428;-51
2021/09/27 07:48:34;;;;;;;7.83;6.60;;;;;;;;;;5031684;28;20448;-51
2021/09/27 07:51:00;;;;;;;7.97;7.17;;;;;;;;;;5032502;28;20406;-51
2021/09/27 07:53:27;;;;;;;8.23;7.40;;;;;;;;;;5032189;28;20418;-50
2021/09/27 07:55:53;;;;;;;8.30;7.50;;;;;;;;;;5032449;28;20992;-51
2021/09/27 07:58:19;;;;;;;7.60;6.93;;;;;;;;;;5032305;28;20410;-50
2021/09/27 08:00:47;;;;;;;9.03;7.27;;;;;;;;;;5032468;28;20413;-51
2021/09/27 08:03:13;;;;;;;8.40;7.60;;;;;;;;;;5031982;28;20480;-51
2021/09/27 08:05:39;;;;;;;8.00;7.30;;;;;;;;;;5032448;28;20410;-50
2021/09/27 08:08:06;;;;;;;9.90;8.03;;;;;;;;;;5032291;28;20434;-51
2021/09/27 08:10:33;;;;;;;8.13;7.33;;;;;;;;;;5032174;28;20501;-51
2021/09/27 08:12:59;;;;;;;8.70;7.83;;;;;;;;;;5031797;28;20964;-50
2021/09/27 08:15:28;;;;;;;9.37;7.80;;;;;;;;;;5031964;28;20553;-51
2021/09/27 08:17:54;;;;;;;7.47;6.77;;;;;;;;;;5032064;28;20409;-51
2021/09/27 08:20:24;;;;;;;10.17;8.43;;;;;;;;;;5032171;28;20435;-51
2021/09/27 08:22:50;;;;;;;8.10;7.30;;;;;;;;;;5031711;28;20415;-50
2021/09/27 08:25:16;;;;;;;8.00;7.30;;;;;;;;;;5031902;28;20405;-51
2021/09/27 08:27:45;;;;;;;7.90;7.10;;;;;;;;;;5032212;28;20503;-52
2021/09/27 08:30:16;;;;;;;7.90;7.10;;;;;;;;;;5031979;28;20962;-50
2021/09/27 08:32:42;;;;;;;9.77;7.37;;;;;;;;;;5031705;28;20934;-51
2021/09/27 08:35:09;;;;;;;7.53;6.83;;;;;;;;;;5031820;28;20568;-50
2021/09/27 08:37:35;;;;;;;7.90;7.10;;;;;;;;;;5031783;28;20925;-51
2021/09/27 08:40:01;;;;;;;7.40;6.70;;;;;;;;;;5031850;28;20771;-50
2021/09/27 08:42:29;;;;;;;7.60;6.50;;;;;;;;;;5031415;28;20429;-51
2021/09/27 08:45:15;;;;;;;9.00;6.70;;;;;;;;;;5031898;28;20435;-51
2021/09/27 08:48:00;;;;;;;8.47;6.60;;;;;;;;;;5030868;28;20402;-51
2021/09/27 08:50:31;;;;;;;7.00;5.67;;;;;;;;;;5031643;28;20936;-51
2021/09/27 08:52:58;;;;;;;7.30;6.63;;;;;;;;;;5031344;28;20426;-51
2021/09/27 08:55:26;;;;;;;7.47;6.50;;;;;;;;;;5031511;28;20452;-51
2021/09/27 08:57:57;;;;;;;6.67;6.17;;;;;;;;;;5031830;28;20399;-51
2021/09/27 09:00:30;;;;;;;7.57;6.77;;;;;;;;;;5034669;28;20904;-50
2021/09/27 09:03:00;;;;;;;7.40;6.60;;;;;;;;;;5035231;28;20433;-51
2021/09/27 09:05:30;;;;;;;6.40;5.90;;;;;;;;;;5035569;28;20403;-50
2021/09/27 09:08:15;;;;;;;6.37;5.80;;;;;;;;;;5035584;28;20402;-51
2021/09/27 09:10:43;;;;;;;8.13;5.00;;;;;;;;;;5035518;28;20400;-50
2021/09/27 09:13:11;;;;;;;5.30;4.80;;;;;;;;;;5034977;28;20433;-50
2021/09/27 09:15:37;;;;;;;8.13;5.33;;;;;;;;;;5035283;28;20465;-50
2021/09/27 09:18:03;;;;;;;5.93;5.33;;;;;;;;;;5035362;28;20402;-52
2021/09/27 09:20:32;;;;;;;5.03;4.60;;;;;;;;;;5035208;28;20905;-49
2021/09/27 09:22:59;;;;;;;5.03;4.53;;;;;;;;;;5033379;28;20817;-50
2021/09/27 09:25:31;;;;;;;5.37;4.60;;;;;;;;;;5034390;28;20575;-51
2021/09/27 09:27:57;;;;;;;5.23;4.60;;;;;;;;;;5034007;28;20425;-51
2021/09/27 09:30:34;;;;;;;5.63;5.13;;;;;;;;;;5035147;28;20402;-51
2021/09/27 09:33:00;;;;;;;5.93;4.33;;;;;;;;;;5034820;28;20425;-49
2021/09/27 09:35:28;;;;;;;6.30;4.70;;;;;;;;;;5034970;28;20515;-52
2021/09/27 09:38:03;;;;;;;5.50;5.00;;;;;;;;;;5034994;28;20408;-51
2021/09/27 09:40:32;;;;;;;5.30;4.33;;;;;;;;;;5034819;28;20763;-50
2021/09/27 09:42:58;;;;;;;4.60;4.20;;;;;;;;;;5034549;28;20978;-52
2021/09/27 09:45:26;;;;;;;4.73;4.33;;;;;;;;;;5034777;28;20493;-51
2021/09/27 09:47:52;;;;;;;8.67;5.73;;;;;;;;;;5034646;28;20409;-52
2021/09/27 09:50:21;;;;;;;5.70;5.20;;;;;;;;;;5034777;28;20406;-51
2021/09/27 09:52:47;;;;;;;5.07;4.60;;;;;;;;;;5034419;28;20765;-52
2021/09/27 09:55:13;;;;;;;4.97;4.50;;;;;;;;;;5034585;28;20457;-49
2021/09/27 09:57:40;;;;;;;4.33;4.03;;;;;;;;;;5034519;28;20409;-51
2021/09/27 10:00:15;;;;;;;8.00;3.87;;;;;;;;;;5034515;28;20403;-51
2021/09/27 10:02:42;;;;;;;3.83;3.53;;;;;;;;;;5034250;28;20422;-51
2021/09/27 10:05:19;;;;;;;4.10;3.80;;;;;;;;;;5034299;28;20407;-51
2021/09/27 10:07:54;;;;;;;4.80;4.40;;;;;;;;;;5033131;28;20916;-52
2021/09/27 10:10:31;;;;;;;4.57;4.27;;;;;;;;;;5033099;28;20824;-48
2021/09/27 10:12:58;;;;;;;4.60;4.30;;;;;;;;;;5033344;28;20876;-47
2021/09/27 10:15:27;;;;;;;4.30;4.00;;;;;;;;;;5034134;28;20835;-51
2021/09/27 10:18:04;;;;;;;5.80;3.93;;;;;;;;;;5034082;28;20492;-52
2021/09/27 10:20:40;;;;;;;6.40;4.93;;;;;;;;;;5034070;28;20405;-50
2021/09/27 10:23:11;;;;;;;3.87;3.57;;;;;;;;;;5033539;28;20422;-50
2021/09/27 10:25:45;;;;;;;5.53;4.13;;;;;;;;;;5032814;28;20415;-52
2021/09/27 10:28:13;;;;;;;3.67;3.47;;;;;;;;;;5033257;28;20410;-50
2021/09/27 10:30:59;;;;;;;4.83;3.27;;;;;;;;;;5032736;28;20410;-51
2021/09/27 10:33:30;;;;;;;2.97;2.77;;;;;;;;;;5032482;28;20418;-51
2021/09/27 10:35:58;;;;;;;3.53;3.23;;;;;;;;;;5028891;28;20469;-52
2021/09/27 10:38:36;;;;;;;5.27;3.40;;;;;;;;;;5033175;28;20568;-51
2021/09/27 10:41:08;;;;;;;5.37;3.00;;;;;;;;;;5027427;28;20924;-52
2021/09/27 10:43:34;;;;;;;3.27;3.07;;;;;;;;;;5033136;28;20437;-49
2021/09/27 10:46:01;;;;;;;5.90;3.97;;;;;;;;;;5032309;28;20460;-49
2021/09/27 10:48:29;;;;;;;3.63;3.33;;;;;;;;;;5033128;28;20732;-48
2021/09/27 10:50:57;;;;;;;4.07;3.33;;;;;;;;;;5033575;28;20407;-49
2021/09/27 10:53:27;;;;;;;3.43;3.13;;;;;;;;;;5031356;28;20429;-47
2021/09/27 10:55:56;;;;;;;3.60;3.30;;;;;;;;;;5031671;28;20495;-51
2021/09/27 10:58:35;;;;;;;3.13;2.83;;;;;;;;;;5029506;28;20402;-49
2021/09/27 11:01:02;;;;;;;3.40;3.10;;;;;;;;;;5031972;28;20413;-48
2021/09/27 11:03:53;;;;;;;3.80;3.50;;;;;;;;;;5032295;28;21007;-47
2021/09/27 11:06:19;;;;;;;3.27;3.07;;;;;;;;;;5033392;28;20409;-49
2021/09/27 11:08:45;;;;;;;3.10;2.90;;;;;;;;;;5023758;28;20414;-50
2021/09/27 11:11:16;;;;;;;4.30;3.10;;;;;;;;;;5017610;28;20414;-47
2021/09/27 11:13:43;;;;;;;3.50;3.20;;;;;;;;;;5030003;28;20430;-47
2021/09/27 11:16:21;;;;;;;4.03;3.07;;;;;;;;;;5032879;28;20460;-51
2021/09/27 11:18:53;;;;;;;3.93;3.63;;;;;;;;;;5033128;28;20400;-47
2021/09/27 11:21:22;;;;;;;4.13;3.50;;;;;;;;;;5032633;28;20399;-47
2021/09/27 11:23:50;;;;;;;7.17;3.93;;;;;;;;;;5031805;28;20422;-47
2021/09/27 11:26:16;;;;;;;4.17;3.33;;;;;;;;;;5032852;28;20425;-47
2021/09/27 11:28:44;;;;;;;3.80;3.50;;;;;;;;;;5033114;28;20921;-47
2021/09/27 11:31:20;;;;;;;3.83;2.93;;;;;;;;;;5032333;28;20867;-49
2021/09/27 11:33:48;;;;;;;5.50;3.97;;;;;;;;;;5032056;28;20836;-47
2021/09/27 11:36:14;;;;;;;4.00;3.70;;;;;;;;;;5032479;28;20468;-47
2021/09/27 11:38:45;;;;;;;4.17;3.40;;;;;;;;;;5032823;28;20402;-47
2021/09/27 11:41:11;;;;;;;4.20;3.90;;;;;;;;;;5032490;28;20395;-47
2021/09/27 11:43:49;;;;;;;3.87;3.57;;;;;;;;;;5031257;28;20450;-47
2021/09/27 11:46:29;;;;;;;4.63;3.90;;;;;;;;;;5025301;28;20398;-49
2021/09/27 11:49:02;;;;;;;4.10;3.70;;;;;;;;;;5032589;28;20444;-51
2021/09/27 11:51:38;;;;;;;3.43;3.23;;;;;;;;;;5032449;28;21128;-48
2021/09/27 11:54:04;;;;;;;3.53;3.33;;;;;;;;;;5032269;28;20425;-47
2021/09/27 11:56:34;;;;;;;3.73;3.43;;;;;;;;;;5031176;28;20544;-49
2021/09/27 11:59:07;;;;;;;3.97;3.40;;;;;;;;;;5030723;28;20390;-48
2021/09/27 12:01:43;;;;;;;6.57;4.33;;;;;;;;;;5031378;28;20762;-48
2021/09/27 12:04:09;;;;;;;3.90;3.50;;;;;;;;;;5030939;28;20497;-50
2021/09/27 12:06:36;;;;;;;5.57;3.63;;;;;;;;;;5031323;28;20692;-48
2021/09/27 12:09:02;;;;;;;3.53;3.27;;;;;;;;;;5032319;28;20536;-48
2021/09/27 12:11:29;;;;;;;4.30;3.63;;;;;;;;;;5032170;28;20446;-50
2021/09/27 12:14:00;;;;;;;5.10;3.73;;;;;;;;;;5031843;28;20433;-49
2021/09/27 12:16:29;;;;;;;4.10;3.80;;;;;;;;;;5031801;28;20523;-47
2021/09/27 12:19:12;;;;;;;4.60;4.20;;;;;;;;;;5032029;28;20406;-50
2021/09/27 12:21:40;;;;;;;4.17;3.43;;;;;;;;;;5032163;28;20452;-51
2021/09/27 12:24:27;;;;;;;4.60;3.50;;;;;;;;;;5031787;28;20430;-47
2021/09/27 12:27:07;;;;;;;4.30;3.90;;;;;;;;;;5030483;28;20407;-49
2021/09/27 12:29:35;;;;;;;3.90;3.57;;;;;;;;;;5031941;28;20410;-50
2021/09/27 12:32:02;;;;;;;4.37;3.97;;;;;;;;;;5030293;28;20416;-47
2021/09/27 12:34:34;;;;;;;8.63;3.40;;;;;;;;;;5031355;28;20968;-48
2021/09/27 12:37:01;;;;;;;4.03;3.60;;;;;;;;;;5030888;28;20406;-49
2021/09/27 12:39:28;;;;;;;3.60;3.20;;;;;;;;;;5030677;28;20409;-50
2021/09/27 12:41:55;;;;;;;7.70;3.80;;;;;;;;;;5030476;28;20402;-47
2021/09/27 12:44:24;;;;;;;4.83;3.40;;;;;;;;;;5031248;28;20414;-47
2021/09/27 12:46:50;;;;;;;3.77;3.23;;;;;;;;;;5031821;28;20540;-47
2021/09/27 12:49:19;;;;;;;6.30;3.47;;;;;;;;;;5031784;28;20401;-47
2021/09/27 12:51:47;;;;;;;3.83;3.50;;;;;;;;;;5031565;28;20421;-51
2021/09/27 12:54:20;;;;;;;3.93;3.63;;;;;;;;;;5031641;28;20796;-50
2021/09/27 12:56:46;;;;;;;3.47;3.20;;;;;;;;;;5031124;28;20518;-49
2021/09/27 12:59:16;;;;;;;3.50;3.23;;;;;;;;;;5031547;28;20409;-48
2021/09/27 13:01:46;;;;;;;3.33;3.00;;;;;;;;;;5031354;28;20445;-48
2021/09/27 13:04:20;;;;;;;3.30;3.07;;;;;;;;;;5032011;28;20501;-47
2021/09/27 13:06:52;;;;;;;4.17;3.13;;;;;;;;;;5031576;28;20476;-47
2021/09/27 13:09:27;;;;;;;3.53;3.00;;;;;;;;;;5031551;28;20397;-48
2021/09/27 13:12:13;;;;;;;3.53;3.23;;;;;;;;;;5031225;28;20408;-49
2021/09/27 13:14:44;;;;;;;4.07;3.27;;;;;;;;;;5030988;28;20448;-49
2021/09/27 13:17:15;;;;;;;3.20;3.00;;;;;;;;;;5030496;28;20542;-48
2021/09/27 13:19:49;;;;;;;3.13;2.93;;;;;;;;;;5030825;28;20445;-47
2021/09/27 13:22:15;;;;;;;3.97;2.40;;;;;;;;;;5030093;28;20499;-49
2021/09/27 13:24:43;;;;;;;3.20;2.90;;;;;;;;;;5030077;28;20448;-50
2021/09/27 13:27:12;;;;;;;3.10;2.90;;;;;;;;;;5031469;28;20496;-49
2021/09/27 13:29:41;;;;;;;3.07;2.87;;;;;;;;;;5031237;28;20771;-47
2021/09/27 13:32:20;;;;;;;3.83;2.90;;;;;;;;;;5031142;28;20406;-47
2021/09/27 13:34:49;;;;;;;2.77;2.57;;;;;;;;;;5031167;28;20449;-50
2021/09/27 13:37:31;;;;;;;3.30;2.50;;;;;;;;;;5031339;28;20421;-47
2021/09/27 13:39:58;;;;;;;3.27;2.97;;;;;;;;;;5031068;28;20405;-47
2021/09/27 13:42:46;;;;;;;2.83;2.63;;;;;;;;;;5030934;28;20777;-48
2021/09/27 13:45:14;;;;;;;2.67;2.47;;;;;;;;;;5032017;28;20905;-47
2021/09/27 13:47:40;;;;;;;3.03;2.60;;;;;;;;;;5034933;28;20410;-47
2021/09/27 13:50:06;;;;;;;3.90;2.90;;;;;;;;;;5034889;28;20414;-48
2021/09/27 13:52:36;;;;;;;4.80;2.63;;;;;;;;;;5034524;28;20475;-48
2021/09/27 13:55:06;;;;;;;4.07;3.20;;;;;;;;;;5034964;28;20918;-47
2021/09/27 13:57:32;;;;;;;2.60;2.23;;;;;;;;;;5034708;28;20973;-48
2021/09/27 13:59:58;;;;;;;2.70;2.50;;;;;;;;;;5034588;28;20754;-49
2021/09/27 14:02:24;;;;;;;3.50;3.20;;;;;;;;;;5033235;28;20425;-50
2021/09/27 14:04:50;;;;;;;2.77;2.57;;;;;;;;;;5032813;28;20474;-49
2021/09/27 14:07:16;;;;;;;2.90;2.70;;;;;;;;;;5034190;28;20399;-48
2021/09/27 14:09:49;;;;;;;2.97;2.50;;;;;;;;;;5033528;28;20414;-47
2021/09/27 14:12:15;;;;;;;2.80;2.60;;;;;;;;;;5034025;28;20944;-47
2021/09/27 14:14:41;;;;;;;3.00;2.70;;;;;;;;;;5034362;28;20476;-47
2021/09/27 14:17:07;;;;;;;3.03;2.70;;;;;;;;;;5034414;28;20587;-48
2021/09/27 14:19:33;;;;;;;3.70;3.10;;;;;;;;;;5034339;28;20403;-49
2021/09/27 14:22:00;;;;;;;2.90;2.60;;;;;;;;;;5033981;28;20401;-50
2021/09/27 14:24:26;;;;;;;3.13;2.93;;;;;;;;;;5034299;28;20407;-48
2021/09/27 14:26:54;;;;;;;3.27;2.67;;;;;;;;;;5034501;28;20799;-48
2021/09/27 14:29:20;;;;;;;3.77;3.20;;;;;;;;;;5034215;28;20402;-48
2021/09/27 14:31:47;;;;;;;6.60;3.20;;;;;;;;;;5033831;28;20406;-53
2021/09/27 14:34:13;;;;;;;3.70;2.80;;;;;;;;;;5033957;28;20460;-47
2021/09/27 14:36:39;;;;;;;3.60;3.30;;;;;;;;;;5033995;28;20504;-47
2021/09/27 14:39:05;;;;;;;3.80;3.10;;;;;;;;;;5034073;28;20398;-48
2021/09/27 14:41:31;;;;;;;2.60;2.40;;;;;;;;;;5033906;28;20415;-47
2021/09/27 14:43:57;;;;;;;3.77;2.53;;;;;;;;;;5032165;28;20433;-48
2021/09/27 14:46:23;;;;;;;3.07;2.87;;;;;;;;;;5033791;28;20660;-47
2021/09/27 14:48:50;;;;;;;3.10;2.80;;;;;;;;;;5033801;28;20415;-48
2021/09/27 14:51:19;;;;;;;3.33;2.90;;;;;;;;;;5033719;28;20552;-48
2021/09/27 14:53:45;;;;;;;3.00;2.80;;;;;;;;;;5033386;28;20804;-46
2021/09/27 14:56:13;;;;;;;3.90;3.23;;;;;;;;;;5033535;28;20858;-47